Time;durP1;ratioP1;P1;durP2;ratioP2;P2;SDS_P1;SDS_P2;PMS_P1;PMS_P2;Temp;Humidity;BMP_temperature;BMP_pressure;BME280_temperature;BME280_humidity;BME280_pressure;Samples;Min_cycle;Max_cycle;Signal;HPM_P1;HPM_P2
2022/07/12 00:00:08;;;;;;;17.80;16.10;;;;;;;;;;509520;29;1314;-90
2022/07/12 00:00:23;;;;;;;17.85;16.15;;;;;;;;;;508375;29;1305;-90
2022/07/12 00:00:39;;;;;;;18.02;16.23;;;;;;;;;;510122;29;1047;-91
2022/07/12 00:00:55;;;;;;;17.97;16.27;;;;;;;;;;508284;29;1250;-90
2022/07/12 00:01:10;;;;;;;17.55;15.90;;;;;;;;;;507960;29;1381;-90
2022/07/12 00:01:26;;;;;;;17.35;15.75;;;;;;;;;;509710;29;1585;-90
2022/07/12 00:01:41;;;;;;;17.93;16.27;;;;;;;;;;509692;29;1154;-89
2022/07/12 00:01:56;;;;;;;18.17;16.50;;;;;;;;;;507741;29;1229;-91
2022/07/12 00:02:12;;;;;;;17.92;16.23;;;;;;;;;;505872;29;1210;-90
2022/07/12 00:02:27;;;;;;;18.00;16.30;;;;;;;;;;507691;29;1573;-90
2022/07/12 00:02:43;;;;;;;18.55;16.80;;;;;;;;;;507630;29;1374;-90
2022/07/12 00:02:58;;;;;;;18.27;16.57;;;;;;;;;;508095;29;916;-90
2022/07/12 00:03:14;;;;;;;17.73;16.13;;;;;;;;;;509870;29;818;-90
2022/07/12 00:03:29;;;;;;;17.60;15.90;;;;;;;;;;510270;29;1187;-90
2022/07/12 00:03:45;;;;;;;17.77;16.08;;;;;;;;;;510097;29;1151;-90
2022/07/12 00:04:00;;;;;;;18.47;16.63;;;;;;;;;;510067;29;995;-90
2022/07/12 00:04:16;;;;;;;18.20;16.30;;;;;;;;;;508012;29;1195;-90
2022/07/12 00:04:31;;;;;;;17.65;15.88;;;;;;;;;;508190;29;825;-90
2022/07/12 00:04:47;;;;;;;18.17;16.33;;;;;;;;;;506192;29;1174;-90
2022/07/12 00:05:02;;;;;;;18.40;16.50;;;;;;;;;;504337;29;1467;-90
2022/07/12 00:05:18;;;;;;;18.50;16.70;;;;;;;;;;504252;29;842;-90
2022/07/12 00:05:33;;;;;;;18.20;16.40;;;;;;;;;;504380;29;1338;-90
2022/07/12 00:05:49;;;;;;;17.67;15.98;;;;;;;;;;506077;29;857;-90
2022/07/12 00:06:04;;;;;;;17.70;16.07;;;;;;;;;;506402;29;1309;-90
2022/07/12 00:06:20;;;;;;;17.70;16.00;;;;;;;;;;507793;29;731;-90
2022/07/12 00:06:35;;;;;;;17.13;15.50;;;;;;;;;;506224;29;1216;-91
2022/07/12 00:06:51;;;;;;;17.75;16.08;;;;;;;;;;507204;29;1131;-89
2022/07/12 00:07:06;;;;;;;18.40;16.70;;;;;;;;;;508159;29;1023;-89
2022/07/12 00:07:22;;;;;;;18.13;16.42;;;;;;;;;;508295;29;1411;-90
2022/07/12 00:07:37;;;;;;;18.60;16.80;;;;;;;;;;511323;29;1298;-90
2022/07/12 00:07:53;;;;;;;18.52;16.73;;;;;;;;;;509966;29;1277;-90
2022/07/12 00:08:09;;;;;;;17.97;16.10;;;;;;;;;;507847;29;789;-90
2022/07/12 00:08:24;;;;;;;18.02;16.17;;;;;;;;;;506553;29;1310;-90
2022/07/12 00:08:40;;;;;;;18.02;16.27;;;;;;;;;;506082;29;1309;-90
2022/07/12 00:08:55;;;;;;;17.87;16.17;;;;;;;;;;506097;29;810;-90
2022/07/12 00:09:11;;;;;;;18.00;16.30;;;;;;;;;;506238;29;1491;-90
2022/07/12 00:09:26;;;;;;;18.10;16.30;;;;;;;;;;504159;29;1369;-90
2022/07/12 00:09:42;;;;;;;18.02;16.25;;;;;;;;;;504732;29;1190;-90
2022/07/12 00:09:57;;;;;;;18.67;16.77;;;;;;;;;;504469;29;1361;-90
2022/07/12 00:10:14;;;;;;;18.80;16.90;;;;;;;;;;506668;29;1218;-90
2022/07/12 00:10:29;;;;;;;18.75;16.95;;;;;;;;;;506531;29;1255;-90
2022/07/12 00:10:45;;;;;;;18.55;16.77;;;;;;;;;;509324;29;988;-90
2022/07/12 00:11:00;;;;;;;18.20;16.47;;;;;;;;;;510186;29;1179;-91
2022/07/12 00:11:15;;;;;;;18.13;16.33;;;;;;;;;;509382;29;805;-90
2022/07/12 00:11:31;;;;;;;18.58;16.73;;;;;;;;;;508283;29;830;-90
2022/07/12 00:11:46;;;;;;;18.83;16.97;;;;;;;;;;508655;29;1271;-90
2022/07/12 00:12:02;;;;;;;18.73;16.90;;;;;;;;;;510175;29;1318;-90
2022/07/12 00:12:18;;;;;;;18.50;16.70;;;;;;;;;;510231;29;1230;-90
2022/07/12 00:12:33;;;;;;;17.70;16.10;;;;;;;;;;510376;29;1004;-90
2022/07/12 00:12:49;;;;;;;17.30;15.70;;;;;;;;;;510619;29;759;-90
2022/07/12 00:13:04;;;;;;;17.77;16.17;;;;;;;;;;511968;29;1316;-90
2022/07/12 00:13:20;;;;;;;18.25;16.55;;;;;;;;;;510171;29;1354;-90
2022/07/12 00:13:35;;;;;;;18.27;16.37;;;;;;;;;;510411;29;1259;-90
2022/07/12 00:13:51;;;;;;;18.77;16.60;;;;;;;;;;509778;29;1266;-90
2022/07/12 00:14:06;;;;;;;18.63;16.73;;;;;;;;;;508446;29;809;-90
2022/07/12 00:14:22;;;;;;;18.23;16.52;;;;;;;;;;509996;29;1288;-90
2022/07/12 00:14:37;;;;;;;18.43;16.73;;;;;;;;;;509873;29;1322;-90
2022/07/12 00:14:53;;;;;;;18.93;17.13;;;;;;;;;;508409;29;1114;-90
2022/07/12 00:15:09;;;;;;;19.20;17.30;;;;;;;;;;508653;29;860;-90
2022/07/12 00:15:25;;;;;;;19.48;17.58;;;;;;;;;;510115;29;888;-90
2022/07/12 00:15:41;;;;;;;19.37;17.47;;;;;;;;;;509647;29;1300;-90
2022/07/12 00:15:57;;;;;;;19.08;17.13;;;;;;;;;;510115;29;1308;-91
2022/07/12 00:16:12;;;;;;;18.95;17.05;;;;;;;;;;510181;29;1209;-90
2022/07/12 00:16:28;;;;;;;19.27;17.43;;;;;;;;;;510182;29;877;-91
2022/07/12 00:16:43;;;;;;;18.93;17.17;;;;;;;;;;510661;29;1416;-90
2022/07/12 00:16:59;;;;;;;18.27;16.58;;;;;;;;;;512036;29;1506;-91
2022/07/12 00:17:15;;;;;;;18.40;16.60;;;;;;;;;;512005;28;1375;-91
2022/07/12 00:17:30;;;;;;;18.77;16.97;;;;;;;;;;510272;29;1445;-90
2022/07/12 00:17:46;;;;;;;18.97;17.23;;;;;;;;;;508490;29;1174;-90
2022/07/12 00:18:01;;;;;;;18.77;17.02;;;;;;;;;;506436;29;1287;-91
2022/07/12 00:18:17;;;;;;;18.80;17.00;;;;;;;;;;506159;29;1146;-91
2022/07/12 00:18:33;;;;;;;19.23;17.40;;;;;;;;;;506245;29;1222;-90
2022/07/12 00:18:48;;;;;;;19.08;17.17;;;;;;;;;;508116;29;1911;-90
2022/07/12 00:19:04;;;;;;;19.13;17.30;;;;;;;;;;508071;29;1155;-90
2022/07/12 00:19:20;;;;;;;19.33;17.52;;;;;;;;;;510071;29;1377;-90
2022/07/12 00:19:35;;;;;;;18.98;17.17;;;;;;;;;;510046;28;1248;-91
2022/07/12 00:19:50;;;;;;;18.90;17.10;;;;;;;;;;506323;29;1327;-91
2022/07/12 00:20:07;;;;;;;18.70;17.00;;;;;;;;;;506570;29;810;-91
2022/07/12 00:20:22;;;;;;;18.42;16.73;;;;;;;;;;508382;29;1277;-90
2022/07/12 00:20:38;;;;;;;18.48;16.77;;;;;;;;;;508373;29;1356;-90
2022/07/12 00:20:54;;;;;;;18.83;17.03;;;;;;;;;;507987;29;973;-91
2022/07/12 00:21:09;;;;;;;18.25;16.52;;;;;;;;;;508804;29;1397;-90
2022/07/12 00:21:25;;;;;;;17.73;16.03;;;;;;;;;;508318;29;1314;-90
2022/07/12 00:21:40;;;;;;;18.13;16.42;;;;;;;;;;508394;29;1045;-91
2022/07/12 00:21:55;;;;;;;18.50;16.70;;;;;;;;;;507072;29;1250;-91
2022/07/12 00:22:11;;;;;;;18.50;16.70;;;;;;;;;;505939;29;1469;-90
2022/07/12 00:22:28;;;;;;;18.33;16.53;;;;;;;;;;502426;29;1246;-90
2022/07/12 00:22:43;;;;;;;18.27;16.48;;;;;;;;;;502289;29;1484;-90
2022/07/12 00:22:59;;;;;;;18.73;16.92;;;;;;;;;;506864;29;1524;-90
2022/07/12 00:23:15;;;;;;;19.15;17.25;;;;;;;;;;507456;29;1551;-91
2022/07/12 00:23:31;;;;;;;19.10;17.15;;;;;;;;;;508441;29;1475;-90
2022/07/12 00:23:46;;;;;;;18.57;16.77;;;;;;;;;;508122;29;1290;-90
2022/07/12 00:24:02;;;;;;;18.27;16.53;;;;;;;;;;511769;29;1236;-90
2022/07/12 00:24:17;;;;;;;18.20;16.50;;;;;;;;;;509704;29;1396;-91
2022/07/12 00:24:33;;;;;;;18.50;16.70;;;;;;;;;;507775;29;1409;-90
2022/07/12 00:24:48;;;;;;;19.50;17.55;;;;;;;;;;507937;29;1340;-91
2022/07/12 00:25:04;;;;;;;19.17;17.37;;;;;;;;;;508117;29;897;-90
2022/07/12 00:25:20;;;;;;;18.37;16.67;;;;;;;;;;507985;29;1380;-91
2022/07/12 00:25:35;;;;;;;18.92;17.13;;;;;;;;;;508182;29;1166;-90
2022/07/12 00:25:51;;;;;;;18.70;16.90;;;;;;;;;;508120;29;1177;-90
2022/07/12 00:26:06;;;;;;;17.90;16.20;;;;;;;;;;508151;29;1387;-90
2022/07/12 00:26:22;;;;;;;18.05;16.35;;;;;;;;;;510344;29;1193;-90
2022/07/12 00:26:37;;;;;;;18.43;16.63;;;;;;;;;;510351;29;1198;-91
2022/07/12 00:26:53;;;;;;;18.95;17.05;;;;;;;;;;512050;29;1405;-90
2022/07/12 00:27:08;;;;;;;19.00;17.20;;;;;;;;;;510275;28;1309;-91
2022/07/12 00:27:24;;;;;;;18.58;16.80;;;;;;;;;;510284;29;900;-91
2022/07/12 00:27:40;;;;;;;18.03;16.33;;;;;;;;;;510048;29;794;-91
2022/07/12 00:27:55;;;;;;;17.92;16.23;;;;;;;;;;508616;29;1212;-91
2022/07/12 00:28:11;;;;;;;17.92;16.25;;;;;;;;;;510122;29;995;-90
2022/07/12 00:28:26;;;;;;;17.73;16.13;;;;;;;;;;510055;29;1287;-90
2022/07/12 00:28:42;;;;;;;18.30;16.65;;;;;;;;;;510286;29;983;-91
2022/07/12 00:28:58;;;;;;;18.50;16.80;;;;;;;;;;510624;29;939;-91
2022/07/12 00:29:13;;;;;;;18.17;16.50;;;;;;;;;;510034;29;1178;-91
2022/07/12 00:29:29;;;;;;;18.30;16.60;;;;;;;;;;509974;29;1354;-90
2022/07/12 00:29:44;;;;;;;18.77;16.98;;;;;;;;;;509966;29;1434;-90
2022/07/12 00:29:59;;;;;;;18.67;16.87;;;;;;;;;;510063;29;1468;-90
2022/07/12 00:30:15;;;;;;;18.70;17.00;;;;;;;;;;509886;29;1211;-90
2022/07/12 00:30:30;;;;;;;18.85;17.15;;;;;;;;;;508346;29;1227;-91
2022/07/12 00:30:45;;;;;;;18.60;16.83;;;;;;;;;;508714;29;1306;-91
2022/07/12 00:31:01;;;;;;;18.77;16.98;;;;;;;;;;506391;29;1205;-90
2022/07/12 00:31:16;;;;;;;18.57;16.87;;;;;;;;;;508380;29;1202;-91
2022/07/12 00:31:33;;;;;;;18.23;16.52;;;;;;;;;;508287;29;1388;-91
2022/07/12 00:31:48;;;;;;;18.30;16.60;;;;;;;;;;504389;29;1257;-91
2022/07/12 00:32:04;;;;;;;18.43;16.73;;;;;;;;;;504452;29;834;-90
2022/07/12 00:32:19;;;;;;;18.85;17.00;;;;;;;;;;504731;29;925;-91
2022/07/12 00:32:34;;;;;;;18.53;16.73;;;;;;;;;;508006;29;1271;-90
2022/07/12 00:32:50;;;;;;;18.73;16.92;;;;;;;;;;508496;29;1333;-91
2022/07/12 00:33:05;;;;;;;18.77;16.97;;;;;;;;;;508464;29;1328;-91
2022/07/12 00:33:20;;;;;;;18.23;16.37;;;;;;;;;;508858;29;1368;-90
2022/07/12 00:33:36;;;;;;;18.98;17.08;;;;;;;;;;508618;29;834;-90
2022/07/12 00:33:52;;;;;;;19.00;17.30;;;;;;;;;;512244;29;1229;-91
2022/07/12 00:34:07;;;;;;;18.35;16.65;;;;;;;;;;510365;29;1399;-90
2022/07/12 00:34:22;;;;;;;18.37;16.57;;;;;;;;;;510103;29;865;-90
2022/07/12 00:34:38;;;;;;;18.63;16.83;;;;;;;;;;505973;29;1191;-90
2022/07/12 00:34:53;;;;;;;19.07;17.27;;;;;;;;;;506297;29;1234;-91
2022/07/12 00:35:09;;;;;;;19.15;17.35;;;;;;;;;;508120;29;1392;-89
2022/07/12 00:35:24;;;;;;;19.20;17.30;;;;;;;;;;508148;29;1011;-90
2022/07/12 00:35:40;;;;;;;19.17;17.27;;;;;;;;;;507878;29;909;-90
2022/07/12 00:35:55;;;;;;;19.07;17.17;;;;;;;;;;506604;29;1452;-89
2022/07/12 00:36:11;;;;;;;18.60;16.80;;;;;;;;;;508343;29;1206;-90
2022/07/12 00:36:26;;;;;;;18.25;16.42;;;;;;;;;;506552;29;1245;-90
2022/07/12 00:36:42;;;;;;;18.27;16.47;;;;;;;;;;508145;29;995;-90
2022/07/12 00:36:57;;;;;;;17.80;16.13;;;;;;;;;;508163;29;876;-90
2022/07/12 00:37:12;;;;;;;17.57;15.87;;;;;;;;;;506337;29;1202;-90
2022/07/12 00:37:28;;;;;;;17.80;16.10;;;;;;;;;;504144;29;1270;-90
2022/07/12 00:37:43;;;;;;;17.97;16.33;;;;;;;;;;504454;29;1317;-90
2022/07/12 00:37:59;;;;;;;18.05;16.25;;;;;;;;;;506290;29;837;-89
2022/07/12 00:38:14;;;;;;;17.67;15.97;;;;;;;;;;507878;29;1220;-90
2022/07/12 00:38:30;;;;;;;17.73;16.10;;;;;;;;;;508366;29;1305;-90
2022/07/12 00:38:45;;;;;;;18.23;16.53;;;;;;;;;;508232;29;1911;-91
2022/07/12 00:39:03;;;;;;;19.17;17.37;;;;;;;;;;508439;29;904;-91
2022/07/12 00:39:19;;;;;;;18.98;17.17;;;;;;;;;;508853;29;1509;-90
2022/07/12 00:39:34;;;;;;;18.13;16.40;;;;;;;;;;509677;29;1381;-91
2022/07/12 00:39:50;;;;;;;18.47;16.70;;;;;;;;;;506314;29;1313;-90
2022/07/12 00:40:10;;;;;;;18.13;16.42;;;;;;;;;;507116;29;1025;-90
2022/07/12 00:40:26;;;;;;;17.85;16.15;;;;;;;;;;506300;29;1147;-90
2022/07/12 00:40:41;;;;;;;17.83;16.13;;;;;;;;;;504593;29;1304;-91
2022/07/12 00:40:57;;;;;;;18.50;16.70;;;;;;;;;;502300;29;1299;-90
2022/07/12 00:41:12;;;;;;;18.60;16.88;;;;;;;;;;502354;29;936;-90
2022/07/12 00:41:28;;;;;;;18.07;16.37;;;;;;;;;;503101;29;925;-90
2022/07/12 00:41:47;;;;;;;18.02;16.33;;;;;;;;;;505114;29;1355;-91
2022/07/12 00:42:02;;;;;;;17.85;16.15;;;;;;;;;;506229;29;1246;-90
2022/07/12 00:42:18;;;;;;;18.08;16.35;;;;;;;;;;506985;29;1214;-90
2022/07/12 00:42:34;;;;;;;18.47;16.67;;;;;;;;;;510841;29;1302;-91
2022/07/12 00:42:50;;;;;;;18.60;16.80;;;;;;;;;;512990;28;1340;-90
2022/07/12 00:43:05;;;;;;;18.77;16.87;;;;;;;;;;512110;29;1217;-90
2022/07/12 00:43:21;;;;;;;18.80;16.90;;;;;;;;;;506139;29;1378;-90
2022/07/12 00:43:36;;;;;;;18.23;16.43;;;;;;;;;;504594;29;1420;-91
2022/07/12 00:43:52;;;;;;;18.42;16.73;;;;;;;;;;504489;29;830;-91
2022/07/12 00:44:07;;;;;;;18.20;16.50;;;;;;;;;;504315;29;1183;-91
2022/07/12 00:44:23;;;;;;;17.95;16.25;;;;;;;;;;504221;29;1223;-90
2022/07/12 00:44:38;;;;;;;18.23;16.53;;;;;;;;;;504729;29;909;-91
2022/07/12 00:44:53;;;;;;;17.87;16.27;;;;;;;;;;508537;29;1315;-90
2022/07/12 00:45:10;;;;;;;17.75;16.05;;;;;;;;;;510191;29;1317;-90
2022/07/12 00:45:25;;;;;;;17.92;16.23;;;;;;;;;;510542;29;994;-91
2022/07/12 00:45:41;;;;;;;18.57;16.77;;;;;;;;;;510269;29;1223;-90
2022/07/12 00:45:56;;;;;;;18.58;16.77;;;;;;;;;;512548;29;1184;-90
2022/07/12 00:46:14;;;;;;;18.17;16.48;;;;;;;;;;510512;29;1341;-90
2022/07/12 00:46:35;;;;;;;18.20;16.50;;;;;;;;;;508152;29;1318;-91
2022/07/12 00:46:51;;;;;;;18.35;16.45;;;;;;;;;;508155;29;1485;-92
2022/07/12 00:47:06;;;;;;;18.77;16.97;;;;;;;;;;506394;29;1234;-92
2022/07/12 00:47:32;;;;;;;18.27;16.57;;;;;;;;;;504443;29;1266;-92
2022/07/12 00:47:49;;;;;;;18.27;16.48;;;;;;;;;;502561;29;1275;-92
2022/07/12 00:48:06;;;;;;;18.50;16.73;;;;;;;;;;504666;29;1303;-92
2022/07/12 00:48:21;;;;;;;18.45;16.70;;;;;;;;;;504469;29;1305;-92
2022/07/12 00:48:37;;;;;;;17.77;16.08;;;;;;;;;;506664;29;1373;-92
2022/07/12 00:48:54;;;;;;;17.80;16.10;;;;;;;;;;507360;29;1314;-92
2022/07/12 00:49:09;;;;;;;18.35;16.65;;;;;;;;;;506729;29;822;-92
2022/07/12 00:49:25;;;;;;;18.60;16.90;;;;;;;;;;506697;29;1301;-92
2022/07/12 00:49:40;;;;;;;19.10;17.30;;;;;;;;;;504777;29;1296;-92
2022/07/12 00:49:56;;;;;;;18.95;17.15;;;;;;;;;;503933;29;1290;-92
2022/07/12 00:50:14;;;;;;;18.43;16.63;;;;;;;;;;503393;29;1309;-92
2022/07/12 00:50:30;;;;;;;18.70;16.90;;;;;;;;;;502637;29;1445;-92
2022/07/12 00:50:47;;;;;;;18.90;17.10;;;;;;;;;;501738;29;1401;-92
2022/07/12 00:51:03;;;;;;;17.92;16.23;;;;;;;;;;502893;29;1321;-92
2022/07/12 00:51:19;;;;;;;18.10;16.45;;;;;;;;;;505023;29;1194;-92
2022/07/12 00:51:34;;;;;;;18.63;16.83;;;;;;;;;;508776;29;1280;-92
2022/07/12 00:51:50;;;;;;;18.37;16.57;;;;;;;;;;508409;29;1191;-92
2022/07/12 00:52:06;;;;;;;17.92;16.23;;;;;;;;;;508454;29;1373;-92
2022/07/12 00:52:23;;;;;;;18.23;16.47;;;;;;;;;;508394;29;1015;-92
2022/07/12 00:52:38;;;;;;;18.10;16.35;;;;;;;;;;508342;29;1463;-92
2022/07/12 00:52:55;;;;;;;18.02;16.33;;;;;;;;;;508551;29;1296;-92
2022/07/12 00:53:12;;;;;;;18.38;16.67;;;;;;;;;;510251;29;1322;-92
2022/07/12 00:53:27;;;;;;;18.33;16.73;;;;;;;;;;509578;29;889;-92
2022/07/12 00:53:43;;;;;;;18.17;16.52;;;;;;;;;;511300;29;1287;-92
2022/07/12 00:53:59;;;;;;;18.20;16.50;;;;;;;;;;510946;29;1177;-92
2022/07/12 00:54:15;;;;;;;18.48;16.67;;;;;;;;;;510366;29;1254;-92
2022/07/12 00:54:30;;;;;;;18.60;16.80;;;;;;;;;;506377;29;1217;-92
2022/07/12 00:54:46;;;;;;;18.70;16.92;;;;;;;;;;508347;29;1321;-92
2022/07/12 00:55:02;;;;;;;18.57;16.87;;;;;;;;;;508296;29;1325;-92
2022/07/12 00:55:20;;;;;;;18.65;16.83;;;;;;;;;;506324;29;1448;-92
2022/07/12 00:55:36;;;;;;;18.13;16.33;;;;;;;;;;506402;29;1476;-92
2022/07/12 00:55:56;;;;;;;17.67;15.97;;;;;;;;;;502694;29;1376;-92
2022/07/12 00:56:13;;;;;;;18.13;16.43;;;;;;;;;;506533;29;1498;-92
2022/07/12 00:56:30;;;;;;;17.88;16.08;;;;;;;;;;506854;29;892;-92
2022/07/12 00:56:46;;;;;;;18.08;16.23;;;;;;;;;;506073;29;1027;-92
2022/07/12 00:57:02;;;;;;;18.67;16.88;;;;;;;;;;509665;29;1326;-92
2022/07/12 00:57:18;;;;;;;18.90;17.17;;;;;;;;;;511406;29;1316;-92
2022/07/12 00:57:35;;;;;;;18.48;16.77;;;;;;;;;;512164;29;794;-92
2022/07/12 00:57:50;;;;;;;18.58;16.80;;;;;;;;;;510868;29;1304;-92
2022/07/12 00:58:06;;;;;;;18.67;16.88;;;;;;;;;;509922;29;1393;-92
2022/07/12 00:58:22;;;;;;;18.83;17.03;;;;;;;;;;508695;29;1411;-91
2022/07/12 00:58:39;;;;;;;18.73;16.90;;;;;;;;;;506766;29;1356;-92
2022/07/12 00:58:55;;;;;;;19.05;17.15;;;;;;;;;;505984;29;1039;-91
2022/07/12 00:59:10;;;;;;;19.30;17.43;;;;;;;;;;507596;29;1181;-91
2022/07/12 00:59:25;;;;;;;19.07;17.27;;;;;;;;;;506960;29;1339;-92
2022/07/12 00:59:41;;;;;;;19.30;17.50;;;;;;;;;;506873;29;1264;-92
2022/07/12 00:59:56;;;;;;;19.43;17.60;;;;;;;;;;506714;29;1461;-92
2022/07/12 01:00:14;;;;;;;19.10;17.30;;;;;;;;;;509160;29;1204;-91
2022/07/12 01:00:30;;;;;;;18.85;17.05;;;;;;;;;;508498;29;1334;-92
2022/07/12 01:00:46;;;;;;;18.35;16.55;;;;;;;;;;506549;29;1460;-92
2022/07/12 01:01:01;;;;;;;18.73;16.93;;;;;;;;;;504935;29;1339;-92
2022/07/12 01:01:17;;;;;;;19.15;17.35;;;;;;;;;;507011;29;1228;-91
2022/07/12 01:01:33;;;;;;;18.80;17.00;;;;;;;;;;506482;29;1295;-92
2022/07/12 01:01:48;;;;;;;18.73;16.92;;;;;;;;;;507662;29;924;-92
2022/07/12 01:02:03;;;;;;;18.97;17.07;;;;;;;;;;506947;29;1183;-92
2022/07/12 01:02:19;;;;;;;18.38;16.50;;;;;;;;;;506429;29;1248;-92
2022/07/12 01:02:36;;;;;;;17.93;16.20;;;;;;;;;;508611;29;1465;-92
2022/07/12 01:02:53;;;;;;;18.65;16.83;;;;;;;;;;508688;29;1445;-91
2022/07/12 01:03:09;;;;;;;19.48;17.60;;;;;;;;;;508897;29;1257;-92
2022/07/12 01:03:25;;;;;;;19.13;17.33;;;;;;;;;;508931;29;901;-92
2022/07/12 01:03:42;;;;;;;18.95;17.15;;;;;;;;;;507244;29;1302;-92
2022/07/12 01:03:57;;;;;;;19.52;17.63;;;;;;;;;;506846;29;1352;-92
2022/07/12 01:04:13;;;;;;;19.33;17.43;;;;;;;;;;506681;29;1208;-92
2022/07/12 01:04:28;;;;;;;19.38;17.50;;;;;;;;;;505788;29;1300;-90
2022/07/12 01:04:45;;;;;;;19.63;17.80;;;;;;;;;;504730;29;1342;-93
2022/07/12 01:05:02;;;;;;;19.55;17.65;;;;;;;;;;504731;29;1329;-93
2022/07/12 01:05:18;;;;;;;19.08;17.17;;;;;;;;;;508724;29;1422;-92
2022/07/12 01:05:33;;;;;;;18.83;17.02;;;;;;;;;;508925;29;1209;-92
2022/07/12 01:05:49;;;;;;;18.60;16.87;;;;;;;;;;508763;29;1183;-92
2022/07/12 01:06:07;;;;;;;18.10;16.40;;;;;;;;;;508788;29;936;-92
2022/07/12 01:06:24;;;;;;;18.08;16.38;;;;;;;;;;508595;29;1380;-91
2022/07/12 01:06:39;;;;;;;18.65;16.92;;;;;;;;;;507252;29;1079;-92
2022/07/12 01:06:55;;;;;;;18.57;16.87;;;;;;;;;;507593;29;877;-92
2022/07/12 01:07:10;;;;;;;18.40;16.60;;;;;;;;;;509392;29;924;-93
2022/07/12 01:07:26;;;;;;;18.50;16.70;;;;;;;;;;508210;29;1336;-91
2022/07/12 01:07:44;;;;;;;18.52;16.73;;;;;;;;;;509256;29;1374;-92
2022/07/12 01:08:00;;;;;;;18.45;16.65;;;;;;;;;;510167;29;1265;-92
2022/07/12 01:08:17;;;;;;;19.08;17.27;;;;;;;;;;510202;29;951;-92
2022/07/12 01:08:33;;;;;;;19.50;17.65;;;;;;;;;;510199;29;790;-92
2022/07/12 01:08:49;;;;;;;19.40;17.50;;;;;;;;;;510132;29;1294;-91
2022/07/12 01:09:04;;;;;;;19.25;17.30;;;;;;;;;;510092;29;873;-92
2022/07/12 01:09:20;;;;;;;19.15;17.25;;;;;;;;;;511224;29;868;-92
2022/07/12 01:09:38;;;;;;;19.27;17.37;;;;;;;;;;511526;29;900;-92
2022/07/12 01:09:54;;;;;;;19.88;17.77;;;;;;;;;;511368;29;1285;-92
2022/07/12 01:10:10;;;;;;;19.50;17.43;;;;;;;;;;510310;29;1397;-93
2022/07/12 01:10:29;;;;;;;19.65;17.67;;;;;;;;;;510179;29;1257;-92
2022/07/12 01:10:47;;;;;;;19.42;17.63;;;;;;;;;;510233;29;1377;-92
2022/07/12 01:11:03;;;;;;;19.20;17.42;;;;;;;;;;510342;29;1412;-91
2022/07/12 01:11:18;;;;;;;18.98;17.17;;;;;;;;;;508931;29;1390;-91
2022/07/12 01:11:35;;;;;;;19.10;17.20;;;;;;;;;;510744;29;1200;-91
2022/07/12 01:11:51;;;;;;;19.25;17.25;;;;;;;;;;510705;29;1328;-92
2022/07/12 01:12:07;;;;;;;19.15;17.17;;;;;;;;;;509339;29;1231;-92
2022/07/12 01:12:24;;;;;;;18.90;17.10;;;;;;;;;;506706;29;1214;-92
2022/07/12 01:12:39;;;;;;;18.90;17.10;;;;;;;;;;506662;29;845;-92
2022/07/12 01:12:58;;;;;;;19.05;17.25;;;;;;;;;;506651;29;865;-92
2022/07/12 01:13:14;;;;;;;19.15;17.25;;;;;;;;;;507683;29;1380;-91
2022/07/12 01:13:30;;;;;;;18.33;16.45;;;;;;;;;;507291;29;1319;-92
2022/07/12 01:13:45;;;;;;;18.50;16.60;;;;;;;;;;507737;29;1430;-92
2022/07/12 01:14:01;;;;;;;18.85;17.05;;;;;;;;;;508599;29;837;-92
2022/07/12 01:14:17;;;;;;;18.90;17.10;;;;;;;;;;509549;29;1175;-92
2022/07/12 01:14:34;;;;;;;19.10;17.27;;;;;;;;;;510601;29;900;-92
2022/07/12 01:14:49;;;;;;;18.98;17.25;;;;;;;;;;511290;29;865;-92
2022/07/12 01:15:06;;;;;;;19.30;17.42;;;;;;;;;;511962;29;1183;-92
2022/07/12 01:15:23;;;;;;;19.55;17.65;;;;;;;;;;507588;29;1270;-91
2022/07/12 01:15:39;;;;;;;19.23;17.42;;;;;;;;;;509326;29;1365;-92
2022/07/12 01:15:55;;;;;;;18.08;16.35;;;;;;;;;;508382;29;1383;-91
2022/07/12 01:16:12;;;;;;;18.67;16.67;;;;;;;;;;507326;29;1237;-92
2022/07/12 01:16:28;;;;;;;19.20;17.17;;;;;;;;;;508575;29;1342;-91
2022/07/12 01:16:44;;;;;;;18.55;16.85;;;;;;;;;;506404;29;1401;-92
2022/07/12 01:16:59;;;;;;;18.77;16.98;;;;;;;;;;508451;29;1348;-92
2022/07/12 01:17:16;;;;;;;18.53;16.73;;;;;;;;;;509155;29;1367;-92
2022/07/12 01:17:32;;;;;;;18.00;16.27;;;;;;;;;;508462;29;1325;-92
2022/07/12 01:17:47;;;;;;;18.20;16.48;;;;;;;;;;510186;29;1249;-92
2022/07/12 01:18:04;;;;;;;18.40;16.70;;;;;;;;;;508264;29;1249;-91
2022/07/12 01:18:20;;;;;;;19.30;17.40;;;;;;;;;;510206;29;1316;-92
2022/07/12 01:18:36;;;;;;;19.45;17.63;;;;;;;;;;510220;29;1488;-92
2022/07/12 01:18:53;;;;;;;18.83;17.05;;;;;;;;;;508321;29;1914;-91
2022/07/12 01:19:17;;;;;;;18.73;16.83;;;;;;;;;;510406;29;1397;-92
2022/07/12 01:19:36;;;;;;;18.88;17.08;;;;;;;;;;508354;29;1353;-92
2022/07/12 01:19:54;;;;;;;19.27;17.42;;;;;;;;;;509022;29;1390;-92
2022/07/12 01:20:10;;;;;;;19.88;17.75;;;;;;;;;;508363;29;1234;-92
2022/07/12 01:20:26;;;;;;;19.83;17.75;;;;;;;;;;508049;29;1218;-91
2022/07/12 01:20:41;;;;;;;19.15;17.35;;;;;;;;;;506259;29;1354;-92
2022/07/12 01:20:57;;;;;;;19.58;17.67;;;;;;;;;;504265;29;1311;-92
2022/07/12 01:21:22;;;;;;;19.37;17.47;;;;;;;;;;504247;29;1245;-91
2022/07/12 01:21:38;;;;;;;19.10;17.20;;;;;;;;;;506661;29;1361;-92
2022/07/12 01:21:57;;;;;;;18.13;16.42;;;;;;;;;;506422;29;889;-92
2022/07/12 01:22:15;;;;;;;18.35;16.65;;;;;;;;;;506383;29;1254;-92
2022/07/12 01:22:33;;;;;;;18.80;16.95;;;;;;;;;;505317;29;1227;-92
2022/07/12 01:22:57;;;;;;;18.77;16.98;;;;;;;;;;507079;29;1966;-92
2022/07/12 01:23:13;;;;;;;19.40;17.50;;;;;;;;;;510013;29;1293;-92
2022/07/12 01:23:29;;;;;;;18.98;17.15;;;;;;;;;;510338;29;1379;-92
2022/07/12 01:23:46;;;;;;;18.88;17.08;;;;;;;;;;510117;29;1371;-91
2022/07/12 01:24:02;;;;;;;19.20;17.30;;;;;;;;;;510320;29;1319;-92
2022/07/12 01:24:20;;;;;;;19.20;17.37;;;;;;;;;;510211;29;900;-92
2022/07/12 01:24:36;;;;;;;19.40;17.60;;;;;;;;;;509810;29;1424;-92
2022/07/12 01:24:52;;;;;;;19.00;17.20;;;;;;;;;;510122;29;1230;-92
2022/07/12 01:25:08;;;;;;;19.17;17.30;;;;;;;;;;508382;29;1319;-92
2022/07/12 01:25:24;;;;;;;19.42;17.52;;;;;;;;;;507989;29;1407;-92
2022/07/12 01:25:39;;;;;;;19.42;17.55;;;;;;;;;;508064;29;1269;-92
2022/07/12 01:25:55;;;;;;;19.00;17.20;;;;;;;;;;512030;29;1318;-92
2022/07/12 01:26:11;;;;;;;19.20;17.30;;;;;;;;;;510238;29;1370;-92
2022/07/12 01:26:27;;;;;;;19.00;17.13;;;;;;;;;;510179;29;1423;-92
2022/07/12 01:26:42;;;;;;;18.50;16.70;;;;;;;;;;512252;29;1215;-92
2022/07/12 01:26:58;;;;;;;18.58;16.77;;;;;;;;;;510201;29;1577;-92
2022/07/12 01:27:14;;;;;;;19.33;17.53;;;;;;;;;;512164;29;1139;-92
2022/07/12 01:27:29;;;;;;;19.70;17.85;;;;;;;;;;510791;29;1235;-92
2022/07/12 01:27:45;;;;;;;19.77;17.77;;;;;;;;;;506281;29;1195;-92
2022/07/12 01:28:02;;;;;;;19.70;17.77;;;;;;;;;;510068;29;1233;-92
2022/07/12 01:28:18;;;;;;;19.45;17.55;;;;;;;;;;506300;29;1357;-92
2022/07/12 01:28:34;;;;;;;19.10;17.25;;;;;;;;;;506214;29;1306;-92
2022/07/12 01:28:50;;;;;;;19.10;17.30;;;;;;;;;;504396;29;1411;-92
2022/07/12 01:29:06;;;;;;;19.67;17.77;;;;;;;;;;506242;29;1211;-92
2022/07/12 01:29:23;;;;;;;19.27;17.38;;;;;;;;;;506382;29;1272;-92
2022/07/12 01:29:39;;;;;;;19.02;17.23;;;;;;;;;;504363;29;1338;-91
2022/07/12 01:29:55;;;;;;;19.08;17.27;;;;;;;;;;506249;29;1343;-92
2022/07/12 01:30:11;;;;;;;19.25;17.45;;;;;;;;;;508767;29;1334;-92
2022/07/12 01:30:26;;;;;;;19.48;17.58;;;;;;;;;;506352;29;1336;-92
2022/07/12 01:30:42;;;;;;;19.73;17.73;;;;;;;;;;504481;29;1256;-92
2022/07/12 01:30:58;;;;;;;19.40;17.50;;;;;;;;;;504387;29;1191;-92
2022/07/12 01:31:14;;;;;;;18.85;17.05;;;;;;;;;;508414;29;1392;-91
2022/07/12 01:31:29;;;;;;;19.35;17.48;;;;;;;;;;508459;29;1323;-92
2022/07/12 01:31:45;;;;;;;19.60;17.70;;;;;;;;;;506507;29;1372;-92
2022/07/12 01:32:36;;;;;;;19.83;17.92;;;;;;;;;;506461;29;672;-92
2022/07/12 01:32:52;;;;;;;19.33;17.50;;;;;;;;;;506788;29;1206;-91
2022/07/12 01:33:08;;;;;;;19.27;17.37;;;;;;;;;;505202;29;1506;-92
2022/07/12 01:33:24;;;;;;;19.55;17.60;;;;;;;;;;504312;29;1232;-92
2022/07/12 01:33:40;;;;;;;19.20;17.35;;;;;;;;;;505606;29;1313;-91
2022/07/12 01:33:56;;;;;;;18.50;16.80;;;;;;;;;;505572;29;1316;-92
2022/07/12 01:34:12;;;;;;;18.80;17.05;;;;;;;;;;504348;29;1224;-92
2022/07/12 01:34:28;;;;;;;19.88;18.02;;;;;;;;;;504351;29;1393;-92
2022/07/12 01:34:43;;;;;;;19.70;17.77;;;;;;;;;;506176;29;1293;-92
2022/07/12 01:35:05;;;;;;;19.73;17.73;;;;;;;;;;510232;29;1347;-92
2022/07/12 01:35:21;;;;;;;19.50;17.60;;;;;;;;;;508778;29;1308;-92
2022/07/12 01:35:37;;;;;;;19.73;17.83;;;;;;;;;;506272;29;1316;-92
2022/07/12 01:35:52;;;;;;;19.77;17.77;;;;;;;;;;508116;29;1164;-92
2022/07/12 01:36:08;;;;;;;19.47;17.47;;;;;;;;;;504334;29;1257;-92
2022/07/12 01:36:24;;;;;;;19.63;17.67;;;;;;;;;;502436;29;1497;-91
2022/07/12 01:36:41;;;;;;;20.08;18.17;;;;;;;;;;504439;29;1331;-92
2022/07/12 01:36:58;;;;;;;19.67;17.77;;;;;;;;;;504533;29;1309;-92